sensor_id;sensor_type;location;lat;lon;timestamp;pressure;altitude;pressure_sealevel;temperature;humidity
3096;BME280;1558;42.700;23.360;2023-03-12T00:00:33;94457.78;;;2.76;100.00
3096;BME280;1558;42.700;23.360;2023-03-12T00:03:01;94467.94;;;2.74;100.00
3096;BME280;1558;42.700;23.360;2023-03-12T00:05:29;94451.97;;;2.74;100.00
3096;BME280;1558;42.700;23.360;2023-03-12T00:07:58;94472.19;;;2.75;100.00
3096;BME280;1558;42.700;23.360;2023-03-12T00:10:26;94465.28;;;2.74;100.00
3096;BME280;1558;42.700;23.360;2023-03-12T00:12:55;94478.00;;;2.77;100.00
3096;BME280;1558;42.700;23.360;2023-03-12T00:15:23;94488.81;;;2.81;100.00
3096;BME280;1558;42.700;23.360;2023-03-12T00:17:51;94486.47;;;2.79;100.00
3096;BME280;1558;42.700;23.360;2023-03-12T00:20:19;94480.97;;;2.76;100.00
3096;BME280;1558;42.700;23.360;2023-03-12T00:22:49;94498.50;;;2.77;100.00
3096;BME280;1558;42.700;23.360;2023-03-12T00:25:17;94499.78;;;2.79;100.00
3096;BME280;1558;42.700;23.360;2023-03-12T00:27:46;94499.19;;;2.82;100.00
3096;BME280;1558;42.700;23.360;2023-03-12T00:30:16;94392.44;;;2.03;100.00
3096;BME280;1558;42.700;23.360;2023-03-12T00:32:44;94509.81;;;2.82;100.00
3096;BME280;1558;42.700;23.360;2023-03-12T00:35:12;94491.41;;;2.72;100.00
3096;BME280;1558;42.700;23.360;2023-03-12T00:37:40;94506.69;;;2.80;100.00
3096;BME280;1558;42.700;23.360;2023-03-12T00:40:09;94510.09;;;2.81;100.00
3096;BME280;1558;42.700;23.360;2023-03-12T00:42:38;94509.81;;;2.82;100.00
3096;BME280;1558;42.700;23.360;2023-03-12T00:45:07;94519.88;;;2.85;100.00
3096;BME280;1558;42.700;23.360;2023-03-12T00:47:36;94517.06;;;2.90;100.00
3096;BME280;1558;42.700;23.360;2023-03-12T00:50:04;94506.38;;;2.82;100.00
3096;BME280;1558;42.700;23.360;2023-03-12T00:52:32;94516.84;;;2.78;100.00
3096;BME280;1558;42.700;23.360;2023-03-12T00:55:00;94508.88;;;2.78;100.00
3096;BME280;1558;42.700;23.360;2023-03-12T00:57:28;94506.47;;;2.77;100.00
3096;BME280;1558;42.700;23.360;2023-03-12T00:59:56;94499.63;;;2.62;100.00
3096;BME280;1558;42.700;23.360;2023-03-12T01:02:24;94512.72;;;2.72;100.00
3096;BME280;1558;42.700;23.360;2023-03-12T01:04:53;94509.88;;;2.68;100.00
3096;BME280;1558;42.700;23.360;2023-03-12T01:07:21;94504.47;;;2.60;100.00
3096;BME280;1558;42.700;23.360;2023-03-12T01:09:49;94516.44;;;2.71;100.00
3096;BME280;1558;42.700;23.360;2023-03-12T01:12:17;94518.03;;;2.72;100.00
3096;BME280;1558;42.700;23.360;2023-03-12T01:14:45;94497.03;;;2.48;100.00
3096;BME280;1558;42.700;23.360;2023-03-12T01:17:13;94520.34;;;2.65;100.00
3096;BME280;1558;42.700;23.360;2023-03-12T01:19:41;94535.22;;;2.66;100.00
3096;BME280;1558;42.700;23.360;2023-03-12T01:22:10;94523.22;;;2.55;100.00
3096;BME280;1558;42.700;23.360;2023-03-12T01:24:38;94541.94;;;2.63;100.00
3096;BME280;1558;42.700;23.360;2023-03-12T01:27:06;94535.81;;;2.63;100.00
3096;BME280;1558;42.700;23.360;2023-03-12T01:29:34;94534.22;;;2.62;100.00
3096;BME280;1558;42.700;23.360;2023-03-12T01:32:02;94537.50;;;2.59;100.00
3096;BME280;1558;42.700;23.360;2023-03-12T01:34:30;94539.06;;;2.60;100.00
3096;BME280;1558;42.700;23.360;2023-03-12T01:36:59;94534.34;;;2.57;100.00
3096;BME280;1558;42.700;23.360;2023-03-12T01:39:28;94546.56;;;2.58;100.00
3096;BME280;1558;42.700;23.360;2023-03-12T01:41:56;94537.31;;;2.55;100.00
3096;BME280;1558;42.700;23.360;2023-03-12T01:44:24;94531.69;;;2.57;100.00
3096;BME280;1558;42.700;23.360;2023-03-12T01:46:52;94531.09;;;2.60;100.00
3096;BME280;1558;42.700;23.360;2023-03-12T01:49:23;94517.66;;;2.65;100.00
3096;BME280;1558;42.700;23.360;2023-03-12T01:51:55;94531.88;;;2.60;100.00
3096;BME280;1558;42.700;23.360;2023-03-12T01:54:30;94538.38;;;2.54;100.00
3096;BME280;1558;42.700;23.360;2023-03-12T01:57:01;94542.47;;;2.52;100.00
3096;BME280;1558;42.700;23.360;2023-03-12T01:59:32;94542.47;;;2.52;100.00
3096;BME280;1558;42.700;23.360;2023-03-12T02:02:01;94540.50;;;2.44;100.00
3096;BME280;1558;42.700;23.360;2023-03-12T02:04:30;94536.34;;;2.38;100.00
3096;BME280;1558;42.700;23.360;2023-03-12T02:07:02;94490.59;;;2.14;100.00
3096;BME280;1558;42.700;23.360;2023-03-12T02:09:34;94549.66;;;2.51;100.00
3096;BME280;1558;42.700;23.360;2023-03-12T02:12:03;94551.63;;;2.46;100.00
3096;BME280;1558;42.700;23.360;2023-03-12T02:14:31;94545.13;;;2.52;100.00
3096;BME280;1558;42.700;23.360;2023-03-12T02:16:59;94546.09;;;2.56;100.00
3096;BME280;1558;42.700;23.360;2023-03-12T02:19:33;94494.25;;;2.18;100.00
3096;BME280;1558;42.700;23.360;2023-03-12T02:22:03;94551.63;;;2.46;100.00
3096;BME280;1558;42.700;23.360;2023-03-12T02:24:37;94548.47;;;2.44;100.00
3096;BME280;1558;42.700;23.360;2023-03-12T02:27:08;94559.91;;;2.44;100.00
3096;BME280;1558;42.700;23.360;2023-03-12T02:29:42;94505.28;;;2.11;100.00
3096;BME280;1558;42.700;23.360;2023-03-12T02:32:17;94556.56;;;2.39;100.00
3096;BME280;1558;42.700;23.360;2023-03-12T02:34:47;94545.91;;;2.39;100.00
3096;BME280;1558;42.700;23.360;2023-03-12T02:37:16;94545.13;;;2.38;100.00
3096;BME280;1558;42.700;23.360;2023-03-12T02:39:50;94535.31;;;2.25;100.00
3096;BME280;1558;42.700;23.360;2023-03-12T02:42:23;94550.84;;;2.32;100.00
3096;BME280;1558;42.700;23.360;2023-03-12T02:44:51;94532.25;;;2.18;100.00
3096;BME280;1558;42.700;23.360;2023-03-12T02:47:20;94486.88;;;2.01;100.00
3096;BME280;1558;42.700;23.360;2023-03-12T02:49:48;94510.78;;;2.15;100.00
3096;BME280;1558;42.700;23.360;2023-03-12T02:52:16;94545.53;;;2.32;100.00
3096;BME280;1558;42.700;23.360;2023-03-12T02:54:44;94544.25;;;2.29;100.00
3096;BME280;1558;42.700;23.360;2023-03-12T02:57:11;94548.13;;;2.23;100.00
3096;BME280;1558;42.700;23.360;2023-03-12T02:59:41;94537.59;;;2.18;100.00
3096;BME280;1558;42.700;23.360;2023-03-12T03:02:09;94521.53;;;2.10;100.00
3096;BME280;1558;42.700;23.360;2023-03-12T03:04:38;94526.56;;;2.11;100.00
3096;BME280;1558;42.700;23.360;2023-03-12T03:07:06;94535.03;;;2.13;100.00
3096;BME280;1558;42.700;23.360;2023-03-12T03:09:34;94516.59;;;2.03;100.00
3096;BME280;1558;42.700;23.360;2023-03-12T03:12:02;94526.25;;;2.13;100.00
3096;BME280;1558;42.700;23.360;2023-03-12T03:14:30;94534.22;;;2.13;100.00
3096;BME280;1558;42.700;23.360;2023-03-12T03:16:59;94543.59;;;2.10;100.00
3096;BME280;1558;42.700;23.360;2023-03-12T03:19:27;94548.72;;;2.07;100.00
3096;BME280;1558;42.700;23.360;2023-03-12T03:21:55;94563.97;;;2.01;100.00
3096;BME280;1558;42.700;23.360;2023-03-12T03:24:23;94548.44;;;1.94;100.00
3096;BME280;1558;42.700;23.360;2023-03-12T03:26:51;94574.63;;;2.01;100.00
3096;BME280;1558;42.700;23.360;2023-03-12T03:29:19;94568.50;;;2.00;100.00
3096;BME280;1558;42.700;23.360;2023-03-12T03:31:47;94545.88;;;1.89;100.00
3096;BME280;1558;42.700;23.360;2023-03-12T03:34:17;94559.56;;;1.96;100.00
3096;BME280;1558;42.700;23.360;2023-03-12T03:36:45;94563.00;;;1.97;100.00
3096;BME280;1558;42.700;23.360;2023-03-12T03:39:13;94546.53;;;1.81;100.00
3096;BME280;1558;42.700;23.360;2023-03-12T03:41:41;94509.72;;;1.61;100.00
3096;BME280;1558;42.700;23.360;2023-03-12T03:44:09;94559.66;;;1.91;100.00
3096;BME280;1558;42.700;23.360;2023-03-12T03:46:37;94434.81;;;1.05;100.00
3096;BME280;1558;42.700;23.360;2023-03-12T03:49:05;94572.34;;;1.94;100.00
3096;BME280;1558;42.700;23.360;2023-03-12T03:51:34;94576.88;;;1.94;100.00
3096;BME280;1558;42.700;23.360;2023-03-12T03:54:03;94564.97;;;1.91;100.00
3096;BME280;1558;42.700;23.360;2023-03-12T03:56:31;94577.28;;;1.87;100.00
3096;BME280;1558;42.700;23.360;2023-03-12T03:58:59;94561.03;;;1.75;100.00
3096;BME280;1558;42.700;23.360;2023-03-12T04:01:27;94559.34;;;1.66;100.00
3096;BME280;1558;42.700;23.360;2023-03-12T04:03:57;94590.44;;;1.79;100.00
3096;BME280;1558;42.700;23.360;2023-03-12T04:06:25;94581.50;;;1.75;100.00
3096;BME280;1558;42.700;23.360;2023-03-12T04:08:54;94591.25;;;1.79;100.00
3096;BME280;1558;42.700;23.360;2023-03-12T04:11:22;94595.47;;;1.80;100.00
3096;BME280;1558;42.700;23.360;2023-03-12T04:13:50;94605.31;;;1.80;100.00
3096;BME280;1558;42.700;23.360;2023-03-12T04:16:18;94542.47;;;1.43;100.00
3096;BME280;1558;42.700;23.360;2023-03-12T04:18:46;94614.28;;;1.84;100.00
3096;BME280;1558;42.700;23.360;2023-03-12T04:21:14;94624.19;;;1.78;100.00
3096;BME280;1558;42.700;23.360;2023-03-12T04:23:42;94626.97;;;1.73;100.00
3096;BME280;1558;42.700;23.360;2023-03-12T04:26:12;94630.13;;;1.75;100.00
3096;BME280;1558;42.700;23.360;2023-03-12T04:28:40;94624.59;;;1.72;100.00
3096;BME280;1558;42.700;23.360;2023-03-12T04:31:09;94616.59;;;1.58;100.00
3096;BME280;1558;42.700;23.360;2023-03-12T04:33:39;94647.81;;;1.66;100.00
3096;BME280;1558;42.700;23.360;2023-03-12T04:36:07;94642.59;;;1.61;100.00
3096;BME280;1558;42.700;23.360;2023-03-12T04:38:35;94659.31;;;1.62;100.00
3096;BME280;1558;42.700;23.360;2023-03-12T04:41:05;94634.69;;;1.56;100.00
3096;BME280;1558;42.700;23.360;2023-03-12T04:43:35;94653.41;;;1.65;100.00
3096;BME280;1558;42.700;23.360;2023-03-12T04:46:03;94649.47;;;1.62;100.00
3096;BME280;1558;42.700;23.360;2023-03-12T04:48:32;94664.63;;;1.62;100.00
3096;BME280;1558;42.700;23.360;2023-03-12T04:51:00;94651.22;;;1.53;100.00
3096;BME280;1558;42.700;23.360;2023-03-12T04:53:28;94669.38;;;1.78;98.97
3096;BME280;1558;42.700;23.360;2023-03-12T04:55:56;94668.72;;;1.86;97.63
3096;BME280;1558;42.700;23.360;2023-03-12T04:58:24;94687.41;;;1.81;99.21
3096;BME280;1558;42.700;23.360;2023-03-12T05:00:54;94676.16;;;2.03;98.97
3096;BME280;1558;42.700;23.360;2023-03-12T05:03:22;94672.91;;;1.92;96.33
3096;BME280;1558;42.700;23.360;2023-03-12T05:05:50;94698.75;;;1.87;96.61
3096;BME280;1558;42.700;23.360;2023-03-12T05:08:18;94700.53;;;1.78;96.78
3096;BME280;1558;42.700;23.360;2023-03-12T05:10:46;94695.84;;;1.70;96.29
3096;BME280;1558;42.700;23.360;2023-03-12T05:13:14;94703.41;;;1.63;97.20
3096;BME280;1558;42.700;23.360;2023-03-12T05:15:43;94668.56;;;1.32;98.36
3096;BME280;1558;42.700;23.360;2023-03-12T05:18:12;94682.75;;;1.41;97.72
3096;BME280;1558;42.700;23.360;2023-03-12T05:20:40;94712.59;;;1.70;98.14
3096;BME280;1558;42.700;23.360;2023-03-12T05:23:08;94698.34;;;1.80;98.08
3096;BME280;1558;42.700;23.360;2023-03-12T05:25:37;94709.44;;;2.00;98.45
3096;BME280;1558;42.700;23.360;2023-03-12T05:28:06;94701.59;;;2.23;95.18
3096;BME280;1558;42.700;23.360;2023-03-12T05:30:34;94682.19;;;2.36;91.94
3096;BME280;1558;42.700;23.360;2023-03-12T05:33:02;94709.13;;;2.75;90.63
3096;BME280;1558;42.700;23.360;2023-03-12T05:35:31;94698.28;;;2.44;90.39
3096;BME280;1558;42.700;23.360;2023-03-12T05:37:59;94724.66;;;2.95;90.26
3096;BME280;1558;42.700;23.360;2023-03-12T05:40:29;94710.88;;;2.80;87.95
3096;BME280;1558;42.700;23.360;2023-03-12T05:42:57;94738.19;;;3.48;88.40
3096;BME280;1558;42.700;23.360;2023-03-12T05:45:25;94749.03;;;4.09;85.68
3096;BME280;1558;42.700;23.360;2023-03-12T05:47:54;94747.16;;;4.10;80.33
3096;BME280;1558;42.700;23.360;2023-03-12T05:50:22;94742.91;;;4.62;80.50
3096;BME280;1558;42.700;23.360;2023-03-12T05:52:52;94729.44;;;4.75;75.71
3096;BME280;1558;42.700;23.360;2023-03-12T05:55:20;94747.78;;;4.68;70.59
3096;BME280;1558;42.700;23.360;2023-03-12T05:57:47;94751.91;;;4.74;69.63
3096;BME280;1558;42.700;23.360;2023-03-12T06:00:16;94771.44;;;4.92;68.13
3096;BME280;1558;42.700;23.360;2023-03-12T06:02:44;94778.94;;;5.12;65.86
3096;BME280;1558;42.700;23.360;2023-03-12T06:05:12;94785.22;;;5.08;64.11
3096;BME280;1558;42.700;23.360;2023-03-12T06:07:40;94781.72;;;5.46;63.25
3096;BME280;1558;42.700;23.360;2023-03-12T06:10:10;94774.91;;;5.32;61.90
3096;BME280;1558;42.700;23.360;2023-03-12T06:12:38;94785.63;;;5.40;62.61
3096;BME280;1558;42.700;23.360;2023-03-12T06:15:08;94777.34;;;5.11;59.93
3096;BME280;1558;42.700;23.360;2023-03-12T06:17:36;94789.28;;;5.05;60.93
3096;BME280;1558;42.700;23.360;2023-03-12T06:20:04;94788.53;;;4.82;60.04
3096;BME280;1558;42.700;23.360;2023-03-12T06:22:33;94805.91;;;4.94;59.94
3096;BME280;1558;42.700;23.360;2023-03-12T06:25:02;94802.72;;;5.22;60.09
3096;BME280;1558;42.700;23.360;2023-03-12T06:27:31;94804.84;;;5.51;59.31
3096;BME280;1558;42.700;23.360;2023-03-12T06:29:59;94762.91;;;5.21;58.60
3096;BME280;1558;42.700;23.360;2023-03-12T06:32:27;94811.00;;;5.60;57.97
3096;BME280;1558;42.700;23.360;2023-03-12T06:34:55;94830.53;;;5.21;58.71
3096;BME280;1558;42.700;23.360;2023-03-12T06:37:26;94803.50;;;4.92;57.17
3096;BME280;1558;42.700;23.360;2023-03-12T06:39:54;94820.56;;;5.05;58.46
3096;BME280;1558;42.700;23.360;2023-03-12T06:42:22;94803.16;;;5.16;57.34
3096;BME280;1558;42.700;23.360;2023-03-12T06:44:53;94843.38;;;5.50;58.44
3096;BME280;1558;42.700;23.360;2023-03-12T06:47:21;94845.63;;;5.74;58.09
3096;BME280;1558;42.700;23.360;2023-03-12T06:49:49;94836.13;;;5.51;57.32
3096;BME280;1558;42.700;23.360;2023-03-12T06:52:18;94802.56;;;5.27;57.68
3096;BME280;1558;42.700;23.360;2023-03-12T06:54:46;94844.47;;;5.49;56.99
3096;BME280;1558;42.700;23.360;2023-03-12T06:57:14;94864.28;;;5.48;57.17
3096;BME280;1558;42.700;23.360;2023-03-12T06:59:42;94862.63;;;5.78;56.35
3096;BME280;1558;42.700;23.360;2023-03-12T07:02:11;94836.63;;;5.61;55.38
3096;BME280;1558;42.700;23.360;2023-03-12T07:04:40;94849.03;;;5.96;56.29
3096;BME280;1558;42.700;23.360;2023-03-12T07:07:08;94870.75;;;6.21;54.50
3096;BME280;1558;42.700;23.360;2023-03-12T07:09:37;94830.28;;;5.96;55.04
3096;BME280;1558;42.700;23.360;2023-03-12T07:12:06;94871.50;;;6.98;54.95
3096;BME280;1558;42.700;23.360;2023-03-12T07:14:34;94884.81;;;7.32;52.48
3096;BME280;1558;42.700;23.360;2023-03-12T07:17:02;94885.31;;;7.64;52.78
3096;BME280;1558;42.700;23.360;2023-03-12T07:19:31;94882.22;;;7.82;51.91
3096;BME280;1558;42.700;23.360;2023-03-12T07:21:59;94888.16;;;7.21;51.09
3096;BME280;1558;42.700;23.360;2023-03-12T07:24:28;94899.13;;;6.73;51.05
3096;BME280;1558;42.700;23.360;2023-03-12T07:26:55;94906.56;;;6.67;51.56
3096;BME280;1558;42.700;23.360;2023-03-12T07:29:23;94923.22;;;6.22;51.52
3096;BME280;1558;42.700;23.360;2023-03-12T07:31:52;94900.84;;;6.18;51.58
3096;BME280;1558;42.700;23.360;2023-03-12T07:34:21;94811.41;;;5.45;52.38
3096;BME280;1558;42.700;23.360;2023-03-12T07:36:50;94902.91;;;6.38;53.67
3096;BME280;1558;42.700;23.360;2023-03-12T07:39:19;94909.84;;;6.73;52.53
3096;BME280;1558;42.700;23.360;2023-03-12T07:41:47;94913.13;;;6.87;51.54
3096;BME280;1558;42.700;23.360;2023-03-12T07:44:15;94891.88;;;6.65;51.42
3096;BME280;1558;42.700;23.360;2023-03-12T07:46:43;94905.44;;;6.51;52.00
3096;BME280;1558;42.700;23.360;2023-03-12T07:49:11;94914.41;;;6.81;53.00
3096;BME280;1558;42.700;23.360;2023-03-12T07:51:40;94884.59;;;7.08;51.47
3096;BME280;1558;42.700;23.360;2023-03-12T07:54:10;94870.19;;;7.21;51.29
3096;BME280;1558;42.700;23.360;2023-03-12T07:56:38;94901.47;;;7.46;49.02
3096;BME280;1558;42.700;23.360;2023-03-12T07:59:06;94920.84;;;7.14;48.25
3096;BME280;1558;42.700;23.360;2023-03-12T08:01:34;94902.44;;;6.53;48.83
3096;BME280;1558;42.700;23.360;2023-03-12T08:04:04;94928.91;;;6.80;49.25
3096;BME280;1558;42.700;23.360;2023-03-12T08:06:32;94930.66;;;6.67;49.49
3096;BME280;1558;42.700;23.360;2023-03-12T08:09:01;94929.03;;;6.24;50.00
3096;BME280;1558;42.700;23.360;2023-03-12T08:11:47;94939.63;;;6.46;50.25
3096;BME280;1558;42.700;23.360;2023-03-12T08:14:18;94942.47;;;6.49;49.49
3096;BME280;1558;42.700;23.360;2023-03-12T08:16:56;94948.00;;;6.70;50.42
3096;BME280;1558;42.700;23.360;2023-03-12T08:19:30;94934.56;;;7.13;50.27
3096;BME280;1558;42.700;23.360;2023-03-12T08:22:16;94901.81;;;6.81;49.79
3096;BME280;1558;42.700;23.360;2023-03-12T08:25:00;94960.75;;;6.73;50.30
3096;BME280;1558;42.700;23.360;2023-03-12T08:27:35;94952.09;;;6.76;49.95
3096;BME280;1558;42.700;23.360;2023-03-12T08:30:06;94948.94;;;6.82;49.31
3096;BME280;1558;42.700;23.360;2023-03-12T08:32:37;94960.53;;;7.38;49.27
3096;BME280;1558;42.700;23.360;2023-03-12T08:35:08;94943.22;;;7.82;48.05
3096;BME280;1558;42.700;23.360;2023-03-12T08:37:41;94958.34;;;7.31;47.88
3096;BME280;1558;42.700;23.360;2023-03-12T08:40:13;94960.75;;;6.90;46.93
3096;BME280;1558;42.700;23.360;2023-03-12T08:42:48;94973.69;;;7.22;47.36
3096;BME280;1558;42.700;23.360;2023-03-12T08:45:22;94971.16;;;7.81;49.39
3096;BME280;1558;42.700;23.360;2023-03-12T08:48:13;94972.41;;;8.50;48.41
3096;BME280;1558;42.700;23.360;2023-03-12T08:50:58;94970.81;;;8.29;46.24
3096;BME280;1558;42.700;23.360;2023-03-12T08:53:34;94836.25;;;7.25;46.22
3096;BME280;1558;42.700;23.360;2023-03-12T08:56:09;94958.31;;;8.24;46.22
3096;BME280;1558;42.700;23.360;2023-03-12T08:58:44;94894.22;;;7.85;45.93
3096;BME280;1558;42.700;23.360;2023-03-12T09:01:32;94980.63;;;8.16;45.89
3096;BME280;1558;42.700;23.360;2023-03-12T09:04:10;94968.28;;;7.86;46.61
3096;BME280;1558;42.700;23.360;2023-03-12T09:06:42;94983.81;;;7.72;47.60
3096;BME280;1558;42.700;23.360;2023-03-12T09:09:12;94963.31;;;8.05;47.56
3096;BME280;1558;42.700;23.360;2023-03-12T09:11:42;94964.63;;;8.28;48.82
3096;BME280;1558;42.700;23.360;2023-03-12T09:14:12;94948.31;;;8.62;47.95
3096;BME280;1558;42.700;23.360;2023-03-12T09:17:01;94979.41;;;8.93;47.03
3096;BME280;1558;42.700;23.360;2023-03-12T09:19:29;94979.78;;;9.24;46.94
3096;BME280;1558;42.700;23.360;2023-03-12T09:21:57;94982.66;;;8.77;46.75
3096;BME280;1558;42.700;23.360;2023-03-12T09:24:25;94961.34;;;8.72;46.64
3096;BME280;1558;42.700;23.360;2023-03-12T09:26:53;94958.91;;;8.59;47.22
3096;BME280;1558;42.700;23.360;2023-03-12T09:29:22;94975.91;;;8.71;47.35
3096;BME280;1558;42.700;23.360;2023-03-12T09:31:50;94984.56;;;8.27;47.26
3096;BME280;1558;42.700;23.360;2023-03-12T09:34:18;94983.59;;;8.81;46.97
3096;BME280;1558;42.700;23.360;2023-03-12T09:36:46;94962.09;;;8.81;47.53
3096;BME280;1558;42.700;23.360;2023-03-12T09:39:14;94972.34;;;8.79;46.23
3096;BME280;1558;42.700;23.360;2023-03-12T09:41:45;94966.28;;;8.91;46.69
3096;BME280;1558;42.700;23.360;2023-03-12T09:44:19;94977.41;;;9.55;47.55
3096;BME280;1558;42.700;23.360;2023-03-12T09:46:53;94972.81;;;10.61;45.96
3096;BME280;1558;42.700;23.360;2023-03-12T09:49:30;94959.25;;;10.21;45.86
3096;BME280;1558;42.700;23.360;2023-03-12T09:52:02;94962.72;;;10.46;45.18
3096;BME280;1558;42.700;23.360;2023-03-12T09:54:38;94943.84;;;10.46;44.37
3096;BME280;1558;42.700;23.360;2023-03-12T09:57:13;94955.19;;;10.15;44.39
3096;BME280;1558;42.700;23.360;2023-03-12T09:59:44;94968.00;;;10.18;43.91
3096;BME280;1558;42.700;23.360;2023-03-12T10:05:16;94923.72;;;9.26;44.04
3096;BME280;1558;42.700;23.360;2023-03-12T10:07:49;94957.56;;;10.16;44.14
3096;BME280;1558;42.700;23.360;2023-03-12T10:10:36;94914.63;;;9.75;43.17
3096;BME280;1558;42.700;23.360;2023-03-12T10:13:18;94951.03;;;10.54;43.75
3096;BME280;1558;42.700;23.360;2023-03-12T10:15:56;94932.72;;;10.99;42.79
3096;BME280;1558;42.700;23.360;2023-03-12T10:18:40;94971.47;;;10.55;42.31
3096;BME280;1558;42.700;23.360;2023-03-12T10:21:19;94947.75;;;11.12;43.65
3096;BME280;1558;42.700;23.360;2023-03-12T10:24:03;94940.00;;;10.99;40.75
3096;BME280;1558;42.700;23.360;2023-03-12T10:26:37;94937.59;;;11.21;41.16
3096;BME280;1558;42.700;23.360;2023-03-12T10:29:11;94911.41;;;10.82;40.43
3096;BME280;1558;42.700;23.360;2023-03-12T10:31:49;94899.72;;;10.38;40.84
3096;BME280;1558;42.700;23.360;2023-03-12T10:34:26;94923.38;;;9.72;40.36
3096;BME280;1558;42.700;23.360;2023-03-12T10:36:58;94915.78;;;10.23;40.63
3096;BME280;1558;42.700;23.360;2023-03-12T10:39:28;94954.94;;;10.68;40.34
3096;BME280;1558;42.700;23.360;2023-03-12T10:41:59;94944.78;;;10.77;40.76
3096;BME280;1558;42.700;23.360;2023-03-12T10:44:27;94899.56;;;10.59;40.79
3096;BME280;1558;42.700;23.360;2023-03-12T10:47:23;94971.34;;;10.63;39.80
3096;BME280;1558;42.700;23.360;2023-03-12T10:50:11;94970.59;;;10.39;41.78
3096;BME280;1558;42.700;23.360;2023-03-12T10:52:39;94942.63;;;10.95;41.07
3096;BME280;1558;42.700;23.360;2023-03-12T10:55:11;94841.25;;;10.14;40.15
3096;BME280;1558;42.700;23.360;2023-03-12T10:57:40;94917.66;;;10.98;40.07
3096;BME280;1558;42.700;23.360;2023-03-12T11:00:17;94960.69;;;10.18;40.09
3096;BME280;1558;42.700;23.360;2023-03-12T11:02:50;94956.41;;;10.30;41.13
3096;BME280;1558;42.700;23.360;2023-03-12T11:05:25;94941.69;;;10.51;40.69
3096;BME280;1558;42.700;23.360;2023-03-12T11:07:53;94947.38;;;9.00;41.88
3096;BME280;1558;42.700;23.360;2023-03-12T11:10:24;94945.56;;;8.71;44.49
3096;BME280;1558;42.700;23.360;2023-03-12T11:12:58;94938.66;;;10.04;43.05
3096;BME280;1558;42.700;23.360;2023-03-12T11:15:28;94923.38;;;10.08;42.83
3096;BME280;1558;42.700;23.360;2023-03-12T11:18:22;94951.56;;;10.71;41.56
3096;BME280;1558;42.700;23.360;2023-03-12T11:20:53;94923.81;;;10.59;41.51
3096;BME280;1558;42.700;23.360;2023-03-12T11:23:26;94936.16;;;9.75;41.54
3096;BME280;1558;42.700;23.360;2023-03-12T11:25:58;94930.13;;;10.02;42.15
3096;BME280;1558;42.700;23.360;2023-03-12T11:28:34;94944.41;;;9.58;42.87
3096;BME280;1558;42.700;23.360;2023-03-12T11:31:04;94947.97;;;9.38;43.15
3096;BME280;1558;42.700;23.360;2023-03-12T11:33:35;94904.22;;;8.96;43.90
3096;BME280;1558;42.700;23.360;2023-03-12T11:36:29;94939.63;;;8.77;42.91
3096;BME280;1558;42.700;23.360;2023-03-12T11:39:04;94916.81;;;9.49;43.84
3096;BME280;1558;42.700;23.360;2023-03-12T11:42:00;94866.59;;;9.53;42.54
3096;BME280;1558;42.700;23.360;2023-03-12T11:44:36;94946.13;;;10.32;41.60
3096;BME280;1558;42.700;23.360;2023-03-12T11:47:20;94922.91;;;10.67;41.33
3096;BME280;1558;42.700;23.360;2023-03-12T11:50:05;94925.97;;;10.41;41.19
3096;BME280;1558;42.700;23.360;2023-03-12T11:52:47;94917.91;;;11.36;40.42
3096;BME280;1558;42.700;23.360;2023-03-12T11:55:49;94859.81;;;11.27;40.41
3096;BME280;1558;42.700;23.360;2023-03-12T11:58:33;94922.75;;;12.02;38.98
3096;BME280;1558;42.700;23.360;2023-03-12T12:01:08;94905.38;;;12.03;37.89
3096;BME280;1558;42.700;23.360;2023-03-12T12:06:50;94932.88;;;10.14;40.56
3096;BME280;1558;42.700;23.360;2023-03-12T12:09:30;94938.53;;;11.56;39.49
3096;BME280;1558;42.700;23.360;2023-03-12T12:12:19;94919.13;;;11.67;38.97
3096;BME280;1558;42.700;23.360;2023-03-12T12:15:03;94930.22;;;11.77;38.59
3096;BME280;1558;42.700;23.360;2023-03-12T12:17:43;94920.91;;;10.52;38.77
3096;BME280;1558;42.700;23.360;2023-03-12T12:20:26;94923.53;;;10.12;40.18
3096;BME280;1558;42.700;23.360;2023-03-12T12:23:05;94933.56;;;9.67;41.49
3096;BME280;1558;42.700;23.360;2023-03-12T12:26:00;94928.97;;;9.91;42.59
3096;BME280;1558;42.700;23.360;2023-03-12T12:29:04;94941.28;;;10.89;41.23
3096;BME280;1558;42.700;23.360;2023-03-12T12:31:41;94935.28;;;11.51;40.60
3096;BME280;1558;42.700;23.360;2023-03-12T12:34:29;94931.31;;;10.65;40.58
3096;BME280;1558;42.700;23.360;2023-03-12T12:37:14;94911.19;;;10.23;41.47
3096;BME280;1558;42.700;23.360;2023-03-12T12:39:49;94919.09;;;9.71;42.04
3096;BME280;1558;42.700;23.360;2023-03-12T12:42:25;94928.09;;;8.98;42.58
3096;BME280;1558;42.700;23.360;2023-03-12T12:44:57;94872.34;;;8.24;43.93
3096;BME280;1558;42.700;23.360;2023-03-12T12:47:33;94929.97;;;9.75;43.78
3096;BME280;1558;42.700;23.360;2023-03-12T12:50:10;94922.06;;;10.39;42.19
3096;BME280;1558;42.700;23.360;2023-03-12T12:52:41;94904.94;;;10.59;41.37
3096;BME280;1558;42.700;23.360;2023-03-12T12:55:14;94908.53;;;10.51;39.80
3096;BME280;1558;42.700;23.360;2023-03-12T12:57:51;94915.22;;;10.05;41.29
3096;BME280;1558;42.700;23.360;2023-03-12T13:00:39;94913.72;;;9.71;42.21
3096;BME280;1558;42.700;23.360;2023-03-12T13:03:13;94925.06;;;9.77;42.50
3096;BME280;1558;42.700;23.360;2023-03-12T13:05:46;94931.88;;;9.17;42.95
3096;BME280;1558;42.700;23.360;2023-03-12T13:08:34;94930.72;;;8.85;42.89
3096;BME280;1558;42.700;23.360;2023-03-12T13:11:04;94932.22;;;9.28;44.57
3096;BME280;1558;42.700;23.360;2023-03-12T13:13:48;94945.84;;;10.00;42.68
3096;BME280;1558;42.700;23.360;2023-03-12T13:16:30;94867.41;;;9.21;42.89
3096;BME280;1558;42.700;23.360;2023-03-12T13:19:02;94895.44;;;9.65;42.21
3096;BME280;1558;42.700;23.360;2023-03-12T13:21:37;94933.94;;;9.89;42.18
3096;BME280;1558;42.700;23.360;2023-03-12T13:24:15;94929.91;;;10.07;42.32
3096;BME280;1558;42.700;23.360;2023-03-12T13:26:51;94918.69;;;9.81;42.37
3096;BME280;1558;42.700;23.360;2023-03-12T13:29:34;94934.47;;;9.26;42.97
3096;BME280;1558;42.700;23.360;2023-03-12T13:32:04;94940.25;;;9.16;43.81
3096;BME280;1558;42.700;23.360;2023-03-12T13:34:44;94951.13;;;9.07;43.75
3096;BME280;1558;42.700;23.360;2023-03-12T13:37:27;94957.63;;;8.85;43.88
3096;BME280;1558;42.700;23.360;2023-03-12T13:39:59;94944.50;;;8.63;43.01
3096;BME280;1558;42.700;23.360;2023-03-12T13:42:38;94939.22;;;8.46;44.82
3096;BME280;1558;42.700;23.360;2023-03-12T13:45:23;94916.19;;;8.45;44.93